»·PEaware :: N7914W KSNA-KLAX

N7914W :: KSNA-KLAX

FLIGHT INFORMATION

Flight Status: Arrived
Operator: Privately registered:
United States
More flights under this callsign
Pilot: Andrew M. (139)
Aircraft: CESSNA 172 SKYHAWK
(C172)
More flights by this aircraft type
Origin: KSNA John Wayne-Orange Co
United States
Destination: KLAX Los Angeles Intl
United States
More flights between these airports :: More routes between these airports
Route: SLI
File this flight plan on PilotEdge
Remarks:
Altitude:
(Current/Filed)
4,000ft
Speed:
(Current/Filed)
115kts
Departed: 28-Nov-18 04:10 PM
Arrived: 28-Nov-18 04:32 PM
Distance/Time
Traveled:
31nm/0:21
Distance/Time
To Go:
Arrived

Flight Plot

Page will automatically refresh every two minutes.


Map Options




Map Legend


Flown Route
Filed Route
Departure Airport
Arrival Airport
Navaid (VOR, NDB)
Fix

Horizontal Profiles

Position Reports

Time Latitude Longitude Heading Altitude Ground
Speed
28-Nov-18 15:48 33.673572 -117.872564 297 60ft 0kts
28-Nov-18 15:49 33.673572 -117.872564 297 60ft 0kts
28-Nov-18 15:50 33.673572 -117.872564 297 60ft 0kts
28-Nov-18 15:51 33.673572 -117.872564 297 60ft 0kts
28-Nov-18 15:52 33.673572 -117.872564 297 60ft 0kts
28-Nov-18 15:53 33.673572 -117.872564 297 60ft 0kts
28-Nov-18 15:54 33.673572 -117.872564 297 60ft 0kts
28-Nov-18 15:55 33.673572 -117.872564 297 60ft 0kts
28-Nov-18 15:56 33.673572 -117.872564 297 60ft 0kts
28-Nov-18 15:57 33.673572 -117.872564 297 60ft 0kts
28-Nov-18 15:58 33.673572 -117.872564 297 60ft 0kts
28-Nov-18 15:59 33.673572 -117.872564 297 60ft 0kts
28-Nov-18 16:00 33.673572 -117.872564 297 60ft 0kts
28-Nov-18 16:01 33.673572 -117.872564 297 60ft 0kts
28-Nov-18 16:02 33.673572 -117.872564 297 60ft 0kts
28-Nov-18 16:03 33.673572 -117.872564 297 60ft 0kts
28-Nov-18 16:04 33.673572 -117.872564 297 60ft 0kts
28-Nov-18 16:05 33.673572 -117.872564 297 60ft 0kts
28-Nov-18 16:06 33.673649 -117.872537 72 60ft 1kts
28-Nov-18 16:07 33.674003 -117.871395 26 60ft 9kts
28-Nov-18 16:08 33.677299 -117.869291 27 60ft 13kts
28-Nov-18 16:09 33.680232 -117.867640 23 60ft 11kts
28-Nov-18 16:10 33.681205 -117.866459 122 60ft 0kts
28-Nov-18 16:11 33.681205 -117.866459 122 60ft 0kts
28-Nov-18 16:12 33.680779 -117.865697 161 60ft 6kts
28-Nov-18 16:13 33.669595 -117.873439 210 482ft 63kts
28-Nov-18 16:14 33.652973 -117.885677 209 1244ft 76kts
28-Nov-18 16:15 33.645311 -117.904540 302 2118ft 81kts
28-Nov-18 16:16 33.661386 -117.921888 311 2950ft 77kts
28-Nov-18 16:17 33.676706 -117.937789 306 3726ft 70kts
28-Nov-18 16:18 33.693291 -117.955948 311 4002ft 115kts
28-Nov-18 16:19 33.718165 -117.982247 311 3997ft 117kts
28-Nov-18 16:20 33.742114 -118.008530 309 3997ft 116kts
28-Nov-18 16:21 33.764712 -118.035706 307 3997ft 115kts
28-Nov-18 16:22 33.787716 -118.062204 327 3995ft 119kts
28-Nov-18 16:23 33.815739 -118.079498 318 3810ft 119kts
28-Nov-18 16:24 33.840589 -118.102090 303 3413ft 112kts
28-Nov-18 16:25 33.857443 -118.131559 298 2844ft 106kts
28-Nov-18 16:26 33.872388 -118.160904 294 2332ft 100kts
28-Nov-18 16:27 33.885817 -118.188886 299 1980ft 99kts
28-Nov-18 16:28 33.899942 -118.215074 299 2044ft 92kts
28-Nov-18 16:29 33.912984 -118.242141 295 2010ft 94kts
28-Nov-18 16:30 33.926261 -118.271318 296 1596ft 103kts
28-Nov-18 16:31 33.940001 -118.300194 298 1422ft 94kts
28-Nov-18 16:32 33.942955 -118.327752 262 984ft 76kts
28-Nov-18 16:33 33.940615 -118.350772 260 662ft 62kts
28-Nov-18 16:34 33.938617 -118.370830 258 399ft 55kts
28-Nov-18 16:35 33.936775 -118.388378 259 99ft 40kts
28-Nov-18 16:36 33.935986 -118.391005 175 102ft 4kts
28-Nov-18 16:37 33.935440 -118.391045 216 102ft 4kts
28-Nov-18 16:38 33.935021 -118.393577 261 103ft 6kts
28-Nov-18 16:39 33.934277 -118.394911 266 105ft 5kts
28-Nov-18 16:40 33.934070 -118.395150 95 105ft 0kts

Navigation Log

Ident Type
Flight plan parsing failed, navigation log unavailable